Time,TemperatureF,DewpointF,PressureIn,WindDirection,WindDirectionDegrees,WindSpeedMPH,WindSpeedGustMPH,Humidity,HourlyPrecipIn,Conditions,Clouds,dailyrainin,SolarRadiationWatts/m^2,SoftwareType,DateUTC
2013-02-04 00:05:00,27.0,20.7,30.02,West,261,0.0,0.0,77,0.00,BKN,SCT,0.00,0.0,WeatherDisplay:10.37,2013-02-04 05:05:00,
2013-02-04 00:10:00,26.9,20.9,30.02,West,261,0.0,1.0,78,0.00,BKN,SCT,0.00,0.0,WeatherDisplay:10.37,2013-02-04 05:10:00,
2013-02-04 00:15:00,26.8,20.9,30.02,West,261,0.0,1.0,78,0.00,BKN,SCT,0.00,0.0,WeatherDisplay:10.37,2013-02-04 05:15:00,
2013-02-04 00:20:00,26.8,20.9,30.02,West,261,0.0,1.0,78,0.00,BKN,SCT,0.00,0.0,WeatherDisplay:10.37,2013-02-04 05:20:00,
2013-02-04 00:25:00,26.8,20.9,30.02,West,261,0.0,2.0,78,0.00,BKN,SCT,0.00,0.0,WeatherDisplay:10.37,2013-02-04 05:25:00,
2013-02-04 00:35:00,27.1,21.5,30.02,West,261,0.0,2.0,79,0.00,BKN,SCT,0.00,0.0,WeatherDisplay:10.37,2013-02-04 05:35:00,
2013-02-04 00:40:00,27.6,22.2,30.02,West,261,0.0,2.0,80,0.00,BKN,SCT,0.00,0.0,WeatherDisplay:10.37,2013-02-04 05:40:00,
2013-02-04 00:45:00,28.1,24.2,30.03,West,261,1.0,4.0,85,0.00,BKN,SCT,0.00,0.0,WeatherDisplay:10.37,2013-02-04 05:45:00,
2013-02-04 00:50:00,28.7,22.7,30.02,West,261,0.0,3.0,78,0.00,BKN,SCT,0.00,0.0,WeatherDisplay:10.37,2013-02-04 05:50:00,
2013-02-04 00:55:00,29.3,22.9,30.02,West,261,1.0,4.0,77,0.00,BKN,SCT,0.00,0.0,WeatherDisplay:10.37,2013-02-04 05:55:00,
2013-02-04 01:00:00,29.8,23.2,30.02,West,261,0.0,3.0,76,0.00,BKN,SCT,0.00,0.0,WeatherDisplay:10.37,2013-02-04 06:00:00,
2013-02-04 01:10:00,30.5,23.2,30.02,West,261,0.0,1.0,74,0.00,BKN,SCT,0.00,0.0,WeatherDisplay:10.37,2013-02-04 06:10:00,
2013-02-04 01:15:00,30.6,23.0,30.02,West,261,0.0,1.0,73,0.00,BKN,SCT,0.00,0.0,WeatherDisplay:10.37,2013-02-04 06:15:00,
2013-02-04 01:20:00,30.6,23.0,30.02,West,261,0.0,1.0,73,0.00,BKN,SCT,0.00,0.0,WeatherDisplay:10.37,2013-02-04 06:20:00,
2013-02-04 01:25:00,30.4,22.5,30.02,West,261,0.0,0.0,72,0.00,BKN,SCT,0.00,0.0,WeatherDisplay:10.37,2013-02-04 06:25:00,
2013-02-04 01:30:00,30.2,22.3,30.03,West,261,0.0,0.0,72,0.00,BKN,SCT,0.00,0.0,WeatherDisplay:10.37,2013-02-04 06:30:00,
2013-02-04 01:35:00,30.0,21.7,30.03,West,261,0.0,0.0,71,0.00,BKN,SCT,0.00,0.0,WeatherDisplay:10.37,2013-02-04 06:35:00,
2013-02-04 01:40:00,29.7,21.4,30.03,West,261,0.0,0.0,71,0.00,BKN,SCT,0.00,0.0,WeatherDisplay:10.37,2013-02-04 06:40:00,
2013-02-04 01:45:00,29.4,21.2,30.03,West,261,0.0,0.0,71,0.00,BKN,SCT,0.00,0.0,WeatherDisplay:10.37,2013-02-04 06:45:00,
2013-02-04 01:50:00,29.0,21.1,30.03,West,261,0.0,0.0,72,0.00,BKN,SCT,0.00,0.0,WeatherDisplay:10.37,2013-02-04 06:50:00,
2013-02-04 01:55:00,28.8,20.9,30.03,West,261,0.0,0.0,72,0.00,BKN,SCT,0.00,0.0,WeatherDisplay:10.37,2013-02-04 06:55:00,
2013-02-04 02:00:00,28.4,20.8,30.04,West,261,0.0,1.0,73,0.00,BKN,SCT,0.00,0.0,WeatherDisplay:10.37,2013-02-04 07:00:00,
2013-02-04 02:05:00,28.1,20.9,30.04,West,261,0.0,0.0,74,0.00,BKN,SCT,0.00,0.0,WeatherDisplay:10.37,2013-02-04 07:05:00,
2013-02-04 02:10:00,27.8,20.6,30.04,West,261,0.0,0.0,74,0.00,BKN,SCT,0.00,0.0,WeatherDisplay:10.37,2013-02-04 07:10:00,
2013-02-04 02:20:00,27.2,20.3,30.04,West,261,0.0,0.0,75,0.00,BKN,SCT,0.00,0.0,WeatherDisplay:10.37,2013-02-04 07:20:00,
2013-02-04 02:25:00,27.0,20.4,30.04,West,261,0.0,1.0,76,0.00,BKN,SCT,0.00,0.0,WeatherDisplay:10.37,2013-02-04 07:25:00,
2013-02-04 02:30:00,26.9,20.6,30.04,West,261,0.0,0.0,77,0.00,BKN,SCT,0.00,0.0,WeatherDisplay:10.37,2013-02-04 07:30:00,
2013-02-04 02:35:00,26.7,20.5,30.04,West,261,0.0,0.0,77,0.00,BKN,SCT,0.00,0.0,WeatherDisplay:10.37,2013-02-04 07:35:00,
2013-02-04 02:40:00,26.5,20.3,30.04,West,261,0.0,1.0,77,0.00,BKN,SCT,0.00,0.0,WeatherDisplay:10.37,2013-02-04 07:40:00,
2013-02-04 02:45:00,26.4,20.4,30.04,West,261,0.0,1.0,78,0.00,BKN,SCT,0.00,0.0,WeatherDisplay:10.37,2013-02-04 07:45:00,
2013-02-04 02:50:00,26.3,20.4,30.04,West,261,0.0,1.0,78,0.00,BKN,SCT,0.00,0.0,WeatherDisplay:10.37,2013-02-04 07:50:00,
2013-02-04 02:55:00,26.2,20.3,30.04,West,261,0.0,1.0,78,0.00,BKN,SCT,0.00,0.0,WeatherDisplay:10.37,2013-02-04 07:55:00,
2013-02-04 03:00:00,26.0,20.1,30.05,West,261,0.0,1.0,78,0.00,BKN,SCT,0.00,0.0,WeatherDisplay:10.37,2013-02-04 08:00:00,
2013-02-04 03:05:00,25.9,20.0,30.05,West,261,0.0,0.0,78,0.00,BKN,SCT,0.00,0.0,WeatherDisplay:10.37,2013-02-04 08:05:00,
2013-02-04 03:10:00,25.7,19.8,30.05,West,261,0.0,0.0,78,0.00,BKN,SCT,0.00,0.0,WeatherDisplay:10.37,2013-02-04 08:10:00,
2013-02-04 03:20:00,25.4,19.5,30.05,West,261,0.0,0.0,78,0.00,BKN,SCT,0.00,0.0,WeatherDisplay:10.37,2013-02-04 08:20:00,
2013-02-04 03:25:00,25.3,19.4,30.05,West,261,0.0,0.0,78,0.00,BKN,SCT,0.00,0.0,WeatherDisplay:10.37,2013-02-04 08:25:00,
2013-02-04 03:30:00,25.2,19.6,30.04,West,261,0.0,1.0,79,0.00,BKN,SCT,0.00,0.0,WeatherDisplay:10.37,2013-02-04 08:30:00,
2013-02-04 03:35:00,25.2,19.6,30.04,West,261,0.0,1.0,79,0.00,BKN,SCT,0.00,0.0,WeatherDisplay:10.37,2013-02-04 08:35:00,
2013-02-04 03:40:00,25.2,19.6,30.04,West,261,0.0,1.0,79,0.00,BKN,SCT,0.00,0.0,WeatherDisplay:10.37,2013-02-04 08:40:00,
2013-02-04 03:45:00,25.1,19.5,30.04,West,261,0.0,0.0,79,0.00,BKN,SCT,0.00,0.0,WeatherDisplay:10.37,2013-02-04 08:45:00,
2013-02-04 03:50:00,25.2,19.9,30.04,West,261,0.0,1.0,80,0.00,BKN,SCT,0.00,0.0,WeatherDisplay:10.37,2013-02-04 08:50:00,
2013-02-04 03:55:00,25.4,20.1,30.04,West,261,0.0,1.0,80,0.00,BKN,SCT,0.00,0.0,WeatherDisplay:10.37,2013-02-04 08:55:00,
2013-02-04 04:00:00,25.7,20.4,30.04,West,261,0.0,1.0,80,0.00,BKN,SCT,0.00,0.0,WeatherDisplay:10.37,2013-02-04 09:00:00,
2013-02-04 04:10:00,26.0,20.4,30.05,West,261,0.0,2.0,79,0.00,BKN,SCT,0.00,0.0,WeatherDisplay:10.37,2013-02-04 09:10:00,
2013-02-04 04:15:00,26.0,20.4,30.04,West,261,0.0,0.0,79,0.00,BKN,SCT,0.00,0.0,WeatherDisplay:10.37,2013-02-04 09:15:00,
2013-02-04 04:20:00,25.9,20.3,30.04,West,261,0.0,0.0,79,0.00,BKN,SCT,0.00,0.0,WeatherDisplay:10.37,2013-02-04 09:20:00,
2013-02-04 04:25:00,25.8,19.9,30.04,West,261,0.0,0.0,78,0.00,BKN,SCT,0.00,0.0,WeatherDisplay:10.37,2013-02-04 09:25:00,
2013-02-04 04:30:00,25.7,19.8,30.05,West,260,0.0,0.0,78,0.00,BKN,SCT,0.00,0.0,WeatherDisplay:10.37,2013-02-04 09:30:00,
2013-02-04 04:35:00,25.5,19.6,30.05,West,261,0.0,1.0,78,0.00,BKN,SCT,0.00,0.0,WeatherDisplay:10.37,2013-02-04 09:35:00,
2013-02-04 04:40:00,25.3,19.4,30.05,West,261,0.0,0.0,78,0.00,BKN,SCT,0.00,0.0,WeatherDisplay:10.37,2013-02-04 09:40:00,
2013-02-04 04:45:00,25.1,19.2,30.05,West,260,0.0,0.0,78,0.00,BKN,SCT,0.00,0.0,WeatherDisplay:10.37,2013-02-04 09:45:00,
2013-02-04 04:50:00,24.8,19.2,30.05,West,261,0.0,0.0,79,0.00,BKN,SCT,0.00,0.0,WeatherDisplay:10.37,2013-02-04 09:50:00,
2013-02-04 05:00:00,24.6,19.3,30.06,West,261,0.0,1.0,80,0.00,BKN,SCT,0.00,0.0,WeatherDisplay:10.37,2013-02-04 10:00:00,
2013-02-04 05:05:00,24.5,19.2,30.06,West,261,0.0,0.0,80,0.00,BKN,SCT,0.00,0.0,WeatherDisplay:10.37,2013-02-04 10:05:00,
2013-02-04 05:15:00,24.5,19.2,30.07,West,261,0.0,0.0,80,0.00,BKN,SCT,0.00,0.0,WeatherDisplay:10.37,2013-02-04 10:15:00,
2013-02-04 05:20:00,24.4,19.4,30.07,West,260,0.0,0.0,81,0.00,BKN,SCT,0.00,0.0,WeatherDisplay:10.37,2013-02-04 10:20:00,
2013-02-04 05:25:00,24.4,19.4,30.07,West,260,0.0,0.0,81,0.00,BKN,SCT,0.00,0.0,WeatherDisplay:10.37,2013-02-04 10:25:00,
2013-02-04 05:30:00,24.4,19.4,30.07,West,261,0.0,1.0,81,0.00,BKN,SCT,0.00,0.0,WeatherDisplay:10.37,2013-02-04 10:30:00,
2013-02-04 05:35:00,24.5,19.8,30.07,West,261,0.0,2.0,82,0.00,BKN,SCT,0.00,0.0,WeatherDisplay:10.37,2013-02-04 10:35:00,
2013-02-04 05:40:00,24.8,20.4,30.07,West,261,0.0,2.0,83,0.00,BKN,SCT,0.00,0.0,WeatherDisplay:10.37,2013-02-04 10:40:00,
2013-02-04 05:45:00,24.9,20.5,30.07,West,261,0.0,1.0,83,0.00,BKN,SCT,0.00,0.0,WeatherDisplay:10.37,2013-02-04 10:45:00,
2013-02-04 05:50:00,24.9,20.5,30.07,West,261,0.0,1.0,83,0.00,BKN,SCT,0.00,0.0,WeatherDisplay:10.37,2013-02-04 10:50:00,
2013-02-04 05:55:00,25.0,20.6,30.07,West,261,0.0,1.0,83,0.00,BKN,SCT,0.00,0.0,WeatherDisplay:10.37,2013-02-04 10:55:00,
2013-02-04 06:00:00,25.1,20.7,30.07,West,261,0.0,1.0,83,0.00,BKN,SCT,0.00,0.0,WeatherDisplay:10.37,2013-02-04 11:00:00,
2013-02-04 06:05:00,25.3,21.1,30.07,West,261,0.0,1.0,84,0.00,BKN,SCT,0.00,0.0,WeatherDisplay:10.37,2013-02-04 11:05:00,
2013-02-04 06:10:00,25.5,21.3,30.07,West,261,0.0,1.0,84,0.00,BKN,SCT,0.00,0.0,WeatherDisplay:10.37,2013-02-04 11:10:00,
2013-02-04 06:15:00,25.6,21.2,30.07,West,261,0.0,1.0,83,0.00,BKN,SCT,0.00,0.0,WeatherDisplay:10.37,2013-02-04 11:15:00,
2013-02-04 06:20:00,25.7,21.6,30.07,West,261,0.0,1.0,84,0.00,BKN,SCT,0.00,0.0,WeatherDisplay:10.37,2013-02-04 11:20:00,
2013-02-04 06:25:00,25.8,21.6,30.08,West,261,0.0,0.0,84,0.00,BKN,SCT,0.00,0.0,WeatherDisplay:10.37,2013-02-04 11:25:00,
2013-02-04 06:30:00,25.9,21.4,30.08,West,261,0.0,1.0,83,0.00,BKN,SCT,0.00,0.0,WeatherDisplay:10.37,2013-02-04 11:30:00,
2013-02-04 06:35:00,25.9,21.4,30.08,West,261,0.0,0.0,83,0.00,BKN,SCT,0.00,0.0,WeatherDisplay:10.37,2013-02-04 11:35:00,
2013-02-04 06:40:00,25.9,21.4,30.08,West,261,0.0,0.0,83,0.00,BKN,SCT,0.00,0.0,WeatherDisplay:10.37,2013-02-04 11:40:00,
2013-02-04 06:45:00,25.8,21.4,30.08,West,261,0.0,1.0,83,0.00,BKN,SCT,0.00,0.0,WeatherDisplay:10.37,2013-02-04 11:45:00,
2013-02-04 06:50:00,25.8,21.3,30.09,West,261,0.0,1.0,83,0.00,BKN,SCT,0.00,0.0,WeatherDisplay:10.37,2013-02-04 11:50:00,
2013-02-04 07:00:00,25.7,21.3,30.09,West,260,0.0,0.0,83,0.00,BKN,SCT,0.00,0.0,WeatherDisplay:10.37,2013-02-04 12:00:00,
2013-02-04 07:05:00,25.7,21.3,30.10,West,261,0.0,0.0,83,0.00,BKN,SCT,0.00,0.0,WeatherDisplay:10.37,2013-02-04 12:05:00,
2013-02-04 07:10:00,25.7,21.3,30.10,West,261,0.0,0.0,83,0.00,BKN,SCT,0.00,0.0,WeatherDisplay:10.37,2013-02-04 12:10:00,
2013-02-04 07:15:00,25.7,21.3,30.10,West,261,0.0,0.0,83,0.00,BKN,SCT,0.00,5.0,WeatherDisplay:10.37,2013-02-04 12:15:00,
2013-02-04 07:20:00,25.7,21.2,30.10,West,261,0.0,0.0,83,0.00,BKN,SCT,0.00,0.0,WeatherDisplay:10.37,2013-02-04 12:20:00,
2013-02-04 07:30:00,25.6,21.2,30.10,West,261,0.0,0.0,83,0.00,BKN,SCT,0.00,7.0,WeatherDisplay:10.37,2013-02-04 12:30:00,
2013-02-04 07:35:00,25.7,21.2,30.10,West,261,0.0,0.0,83,0.00,BKN,SCT,0.00,11.0,WeatherDisplay:10.37,2013-02-04 12:35:00,
2013-02-04 07:40:00,25.7,21.3,30.10,West,261,0.0,0.0,83,0.00,BKN,SCT,0.00,16.0,WeatherDisplay:10.37,2013-02-04 12:40:00,
2013-02-04 07:45:00,25.7,21.3,30.10,West,261,0.0,0.0,83,0.00,BKN,SCT,0.00,14.0,WeatherDisplay:10.37,2013-02-04 12:45:00,
2013-02-04 07:50:00,25.7,21.3,30.10,West,261,0.0,1.0,83,0.00,CLR,SCT,0.00,16.0,WeatherDisplay:10.37,2013-02-04 12:50:00,
2013-02-04 07:55:00,25.8,21.6,30.11,West,261,0.0,1.0,84,0.00,CLR,SCT,0.00,18.0,WeatherDisplay:10.37,2013-02-04 12:55:00,
2013-02-04 08:00:00,26.0,21.8,30.11,West,261,0.0,1.0,84,0.00,CLR,SCT,0.00,19.0,WeatherDisplay:10.37,2013-02-04 13:00:00,
2013-02-04 08:05:00,26.2,22.0,30.11,West,261,0.0,1.0,84,0.00,CLR,SCT,0.00,26.0,WeatherDisplay:10.37,2013-02-04 13:05:00,
2013-02-04 08:10:00,26.3,22.1,30.11,West,260,0.0,0.0,84,0.00,CLR,SCT,0.00,37.0,WeatherDisplay:10.37,2013-02-04 13:10:00,
2013-02-04 08:15:00,26.4,22.5,30.11,West,261,0.0,1.0,85,0.00,CLR,SCT,0.00,42.0,WeatherDisplay:10.37,2013-02-04 13:15:00,
2013-02-04 08:20:00,26.6,22.7,30.12,West,261,0.0,0.0,85,0.00,CLR,SCT,0.00,47.0,WeatherDisplay:10.37,2013-02-04 13:20:00,
2013-02-04 08:25:00,26.8,22.9,30.12,West,261,0.0,0.0,85,0.00,CLR,SCT,0.00,56.0,WeatherDisplay:10.37,2013-02-04 13:25:00,
2013-02-04 08:30:00,26.9,23.0,30.13,West,261,0.0,0.0,85,0.00,CLR,SCT,0.00,65.0,WeatherDisplay:10.37,2013-02-04 13:30:00,
2013-02-04 08:40:00,27.3,23.4,30.14,West,261,0.0,1.0,85,0.00,CLR,SCT,0.00,104.0,WeatherDisplay:10.37,2013-02-04 13:40:00,
2013-02-04 08:45:00,27.5,23.9,30.14,West,260,0.0,0.0,86,0.00,CLR,SCT,0.00,113.0,WeatherDisplay:10.37,2013-02-04 13:45:00,
2013-02-04 08:50:00,27.8,24.2,30.14,West,260,0.0,0.0,86,0.00,CLR,SCT,0.00,113.0,WeatherDisplay:10.37,2013-02-04 13:50:00,
2013-02-04 08:55:00,28.1,24.5,30.15,West,261,0.0,1.0,86,0.00,CLR,SCT,0.00,113.0,WeatherDisplay:10.37,2013-02-04 13:55:00,
2013-02-04 09:00:00,28.4,24.8,30.15,West,261,0.0,0.0,86,0.00,CLR,SCT,0.00,111.0,WeatherDisplay:10.37,2013-02-04 14:00:00,
2013-02-04 09:05:00,28.7,24.8,30.15,West,261,0.0,0.0,85,0.00,CLR,SCT,0.00,111.0,WeatherDisplay:10.37,2013-02-04 14:05:00,
2013-02-04 09:10:00,29.0,25.3,30.15,West,261,0.0,1.0,86,0.00,CLR,SCT,0.00,146.0,WeatherDisplay:10.37,2013-02-04 14:10:00,
2013-02-04 09:15:00,29.3,25.4,30.16,West,261,0.0,1.0,85,0.00,CLR,SCT,0.00,171.0,WeatherDisplay:10.37,2013-02-04 14:15:00,
2013-02-04 09:20:00,29.7,25.8,30.15,West,261,0.0,1.0,85,0.00,CLR,SCT,0.00,197.0,WeatherDisplay:10.37,2013-02-04 14:20:00,
2013-02-04 09:25:00,30.3,26.1,30.14,West,261,1.0,3.0,84,0.00,CLR,SCT,0.00,338.0,WeatherDisplay:10.37,2013-02-04 14:25:00,
2013-02-04 09:30:00,31.2,26.3,30.14,West,261,1.0,4.0,82,0.00,CLR,SCT,0.00,220.0,WeatherDisplay:10.37,2013-02-04 14:30:00,
2013-02-04 09:35:00,31.9,25.8,30.14,West,261,0.0,3.0,78,0.00,CLR,SCT,0.00,193.0,WeatherDisplay:10.37,2013-02-04 14:35:00,
2013-02-04 09:40:00,32.5,26.1,30.15,West,261,1.0,3.0,77,0.00,CLR,SCT,0.00,199.0,WeatherDisplay:10.37,2013-02-04 14:40:00,
2013-02-04 09:45:00,33.1,25.4,30.15,West,261,0.0,3.0,73,0.00,CLR,SCT,0.00,236.0,WeatherDisplay:10.37,2013-02-04 14:45:00,
2013-02-04 09:50:00,33.7,25.3,30.15,WSW,253,1.0,4.0,71,0.00,CLR,SCT,0.00,376.0,WeatherDisplay:10.37,2013-02-04 14:50:00,
2013-02-04 09:55:00,34.4,26.0,30.15,WSW,246,2.0,5.0,71,0.00,CLR,SCT,0.00,494.0,WeatherDisplay:10.37,2013-02-04 14:55:00,
2013-02-04 10:00:00,35.4,25.9,30.15,WSW,241,5.0,6.0,68,0.00,CLR,SCT,0.00,487.0,WeatherDisplay:10.37,2013-02-04 15:00:00,
2013-02-04 10:05:00,35.9,25.3,30.15,SSE,156,2.0,8.0,65,0.00,CLR,SCT,0.00,469.0,WeatherDisplay:10.37,2013-02-04 15:05:00,
2013-02-04 10:10:00,36.4,24.6,30.15,East,96,1.0,7.0,62,0.00,CLR,SCT,0.00,461.0,WeatherDisplay:10.37,2013-02-04 15:10:00,
2013-02-04 10:15:00,36.9,24.7,30.15,East,100,1.0,5.0,61,0.00,CLR,SCT,0.00,413.0,WeatherDisplay:10.37,2013-02-04 15:15:00,
2013-02-04 10:20:00,37.2,25.0,30.16,East,100,1.0,3.0,61,0.00,CLR,SCT,0.00,394.0,WeatherDisplay:10.37,2013-02-04 15:20:00,
2013-02-04 10:25:00,37.6,24.9,30.16,East,100,0.0,3.0,60,0.00,CLR,SCT,0.00,380.0,WeatherDisplay:10.37,2013-02-04 15:25:00,
2013-02-04 10:30:00,37.9,24.8,30.15,East,100,1.0,5.0,59,0.00,CLR,SCT,0.00,413.0,WeatherDisplay:10.37,2013-02-04 15:30:00,
2013-02-04 10:35:00,38.2,25.5,30.16,East,100,2.0,5.0,60,0.00,CLR,SCT,0.00,350.0,WeatherDisplay:10.37,2013-02-04 15:35:00,
2013-02-04 10:40:00,38.4,24.5,30.15,East,100,1.0,5.0,57,0.00,CLR,SCT,0.00,323.0,WeatherDisplay:10.37,2013-02-04 15:40:00,
2013-02-04 10:45:00,38.4,24.9,30.16,East,100,0.0,2.0,58,0.00,CLR,SCT,0.00,334.0,WeatherDisplay:10.37,2013-02-04 15:45:00,
2013-02-04 10:50:00,38.7,25.1,30.16,East,100,0.0,2.0,58,0.00,CLR,SCT,0.00,345.0,WeatherDisplay:10.37,2013-02-04 15:50:00,
2013-02-04 10:55:00,38.9,25.4,30.16,East,100,0.0,2.0,58,0.00,CLR,SCT,0.00,346.0,WeatherDisplay:10.37,2013-02-04 15:55:00,
2013-02-04 11:00:00,39.2,25.3,30.16,East,100,0.0,2.0,57,0.00,CLR,SCT,0.00,338.0,WeatherDisplay:10.37,2013-02-04 16:00:00,
2013-02-04 11:05:00,39.6,24.3,30.16,East,100,2.0,5.0,54,0.00,CLR,SCT,0.00,346.0,WeatherDisplay:10.37,2013-02-04 16:05:00,
2013-02-04 11:10:00,39.8,24.9,30.16,East,100,0.0,2.0,55,0.00,FEW,SCT,0.00,359.0,WeatherDisplay:10.37,2013-02-04 16:10:00,
2013-02-04 11:15:00,40.0,24.7,30.15,East,100,0.0,2.0,54,0.00,CLR,SCT,0.00,397.0,WeatherDisplay:10.37,2013-02-04 16:15:00,
2013-02-04 11:20:00,40.1,25.3,30.15,East,99,1.0,3.0,55,0.00,CLR,SCT,0.00,432.0,WeatherDisplay:10.37,2013-02-04 16:20:00,
2013-02-04 11:25:00,40.3,25.0,30.14,East,99,1.0,8.0,54,0.00,CLR,SCT,0.00,410.0,WeatherDisplay:10.37,2013-02-04 16:25:00,
2013-02-04 11:35:00,40.5,25.2,30.13,ESE,105,1.0,6.0,54,0.00,CLR,SCT,0.00,308.0,WeatherDisplay:10.37,2013-02-04 16:35:00,
2013-02-04 11:40:00,40.6,24.3,30.13,ESE,121,1.0,6.0,52,0.00,FEW,SCT,0.00,301.0,WeatherDisplay:10.37,2013-02-04 16:40:00,
2013-02-04 11:50:00,40.7,24.0,30.12,SE,128,2.0,6.0,51,0.00,SCT,SCT,0.00,269.0,WeatherDisplay:10.37,2013-02-04 16:50:00,
2013-02-04 11:55:00,40.8,24.5,30.12,SE,133,1.0,3.0,52,0.00,SCT,SCT,0.00,255.0,WeatherDisplay:10.37,2013-02-04 16:55:00,
2013-02-04 12:00:00,40.9,24.1,30.12,SE,136,2.0,3.0,51,0.00,SCT,SCT,0.00,257.0,WeatherDisplay:10.37,2013-02-04 17:00:00,
2013-02-04 12:05:00,41.1,25.3,30.11,SE,139,2.0,5.0,53,0.00,SCT,SCT,0.00,257.0,WeatherDisplay:10.37,2013-02-04 17:05:00,
2013-02-04 12:10:00,41.2,24.5,30.11,SE,141,0.0,3.0,51,0.00,SCT,SCT,0.00,272.0,WeatherDisplay:10.37,2013-02-04 17:10:00,
2013-02-04 12:15:00,41.4,25.1,30.12,SE,145,2.0,5.0,52,0.00,SCT,SCT,0.00,272.0,WeatherDisplay:10.37,2013-02-04 17:15:00,
2013-02-04 12:20:00,41.5,25.2,30.12,SSE,158,3.0,6.0,52,0.00,SCT,SCT,0.00,469.0,WeatherDisplay:10.37,2013-02-04 17:20:00,
2013-02-04 12:25:00,41.8,25.4,30.12,South,171,1.0,6.0,52,0.00,FEW,SCT,0.00,633.0,WeatherDisplay:10.37,2013-02-04 17:25:00,
2013-02-04 12:30:00,42.2,25.8,30.12,SSW,198,3.0,7.0,52,0.00,CLR,SCT,0.00,575.0,WeatherDisplay:10.37,2013-02-04 17:30:00,
2013-02-04 12:35:00,42.5,25.2,30.12,SW,235,2.0,8.0,50,0.00,CLR,SCT,0.00,575.0,WeatherDisplay:10.37,2013-02-04 17:35:00,
2013-02-04 12:40:00,42.9,26.0,30.12,WSW,247,1.0,6.0,51,0.00,CLR,SCT,0.00,443.0,WeatherDisplay:10.37,2013-02-04 17:40:00,
2013-02-04 12:45:00,43.2,25.3,30.11,WSW,238,1.0,6.0,49,0.00,FEW,SCT,0.00,478.0,WeatherDisplay:10.37,2013-02-04 17:45:00,
2013-02-04 12:50:00,43.6,26.1,30.10,SW,228,3.0,6.0,50,0.00,FEW,SCT,0.00,480.0,WeatherDisplay:10.37,2013-02-04 17:50:00,
2013-02-04 12:55:00,44.1,27.5,30.10,SW,222,0.0,3.0,52,0.00,FEW,SCT,0.00,559.0,WeatherDisplay:10.37,2013-02-04 17:55:00,
2013-02-04 13:00:00,44.5,26.5,30.10,SW,217,2.0,6.0,49,0.00,CLR,SCT,0.00,619.0,WeatherDisplay:10.37,2013-02-04 18:00:00,
2013-02-04 13:05:00,44.8,26.3,30.10,SSW,194,2.0,8.0,48,0.00,CLR,SCT,0.00,566.0,WeatherDisplay:10.37,2013-02-04 18:05:00,
2013-02-04 13:10:00,45.0,26.5,30.09,South,186,2.0,6.0,48,0.00,CLR,SCT,0.00,517.0,WeatherDisplay:10.37,2013-02-04 18:10:00,
2013-02-04 13:15:00,45.3,26.7,30.09,South,182,3.0,8.0,48,0.00,CLR,SCT,0.00,568.0,WeatherDisplay:10.37,2013-02-04 18:15:00,
2013-02-04 13:20:00,45.6,26.0,30.08,South,184,6.0,12.0,46,0.00,CLR,SCT,0.00,527.0,WeatherDisplay:10.37,2013-02-04 18:20:00,
2013-02-04 13:25:00,45.8,26.2,30.08,South,175,2.0,8.0,46,0.00,CLR,SCT,0.00,566.0,WeatherDisplay:10.37,2013-02-04 18:25:00,
2013-02-04 13:30:00,46.0,26.4,30.08,South,174,2.0,9.0,46,0.00,CLR,SCT,0.00,573.0,WeatherDisplay:10.37,2013-02-04 18:30:00,
2013-02-04 13:35:00,46.3,26.1,30.08,SW,217,1.0,10.0,45,0.00,CLR,SCT,0.00,503.0,WeatherDisplay:10.37,2013-02-04 18:35:00,
2013-02-04 13:40:00,46.4,25.6,30.07,SW,231,2.0,6.0,44,0.00,FEW,SCT,0.00,497.0,WeatherDisplay:10.37,2013-02-04 18:40:00,
2013-02-04 13:45:00,46.6,26.4,30.07,SW,232,6.0,9.0,45,0.00,FEW,SCT,0.00,526.0,WeatherDisplay:10.37,2013-02-04 18:45:00,
2013-02-04 13:50:00,46.8,26.6,30.07,SW,221,3.0,9.0,45,0.00,FEW,SCT,0.00,483.0,WeatherDisplay:10.37,2013-02-04 18:50:00,
2013-02-04 13:55:00,46.9,26.1,30.07,SW,217,2.0,7.0,44,0.00,FEW,SCT,0.00,482.0,WeatherDisplay:10.37,2013-02-04 18:55:00,
2013-02-04 14:00:00,47.0,27.8,30.07,SW,220,1.0,5.0,47,0.00,FEW,SCT,0.00,529.0,WeatherDisplay:10.37,2013-02-04 19:00:00,
2013-02-04 14:05:00,47.2,26.4,30.06,SW,229,2.0,6.0,44,0.00,FEW,SCT,0.00,429.0,WeatherDisplay:10.37,2013-02-04 19:05:00,
2013-02-04 14:10:00,47.4,26.0,30.06,SW,220,3.0,6.0,43,0.00,FEW,SCT,0.00,408.0,WeatherDisplay:10.37,2013-02-04 19:10:00,
2013-02-04 14:15:00,47.6,26.7,30.06,SSW,211,0.0,4.0,44,0.00,SCT,SCT,0.00,443.0,WeatherDisplay:10.37,2013-02-04 19:15:00,
2013-02-04 14:20:00,47.8,25.8,30.06,South,176,2.0,8.0,42,0.00,SCT,SCT,0.00,374.0,WeatherDisplay:10.37,2013-02-04 19:20:00,
2013-02-04 14:25:00,47.9,26.5,30.06,South,169,0.0,5.0,43,0.00,SCT,SCT,0.00,352.0,WeatherDisplay:10.37,2013-02-04 19:25:00,
2013-02-04 14:30:00,48.1,26.6,30.06,South,180,2.0,6.0,43,0.00,SCT,SCT,0.00,436.0,WeatherDisplay:10.37,2013-02-04 19:30:00,
2013-02-04 14:35:00,48.4,26.9,30.06,SW,219,2.0,8.0,43,0.00,SCT,SCT,0.00,411.0,WeatherDisplay:10.37,2013-02-04 19:35:00,
2013-02-04 14:40:00,48.6,27.1,30.05,SW,232,3.0,9.0,43,0.00,SCT,SCT,0.00,408.0,WeatherDisplay:10.37,2013-02-04 19:40:00,
2013-02-04 14:45:00,48.7,27.2,30.05,SW,221,3.0,8.0,43,0.00,FEW,SCT,0.00,506.0,WeatherDisplay:10.37,2013-02-04 19:45:00,
2013-02-04 14:50:00,49.0,26.9,30.05,SSW,207,3.0,9.0,42,0.00,FEW,SCT,0.00,443.0,WeatherDisplay:10.37,2013-02-04 19:50:00,
2013-02-04 14:55:00,49.2,27.1,30.05,SSE,157,2.0,8.0,42,0.00,FEW,SCT,0.00,406.0,WeatherDisplay:10.37,2013-02-04 19:55:00,
2013-02-04 15:00:00,49.2,27.1,30.05,SE,136,1.0,5.0,42,0.00,SCT,SCT,0.00,411.0,WeatherDisplay:10.37,2013-02-04 20:00:00,
2013-02-04 15:05:00,49.4,27.2,30.05,South,186,2.0,7.0,42,0.00,SCT,SCT,0.00,271.0,WeatherDisplay:10.37,2013-02-04 20:05:00,
2013-02-04 15:10:00,49.4,27.8,30.04,SSW,202,2.0,4.0,43,0.00,SCT,SCT,0.00,301.0,WeatherDisplay:10.37,2013-02-04 20:10:00,
2013-02-04 15:15:00,49.4,27.8,30.04,South,188,1.0,6.0,43,0.00,SCT,SCT,0.00,350.0,WeatherDisplay:10.37,2013-02-04 20:15:00,
2013-02-04 15:20:00,49.5,27.3,30.04,South,177,2.0,8.0,42,0.00,SCT,SCT,0.00,504.0,WeatherDisplay:10.37,2013-02-04 20:20:00,
2013-02-04 15:25:00,49.6,28.0,30.04,South,171,3.0,8.0,43,0.00,FEW,SCT,0.00,220.0,WeatherDisplay:10.37,2013-02-04 20:25:00,
2013-02-04 15:30:00,49.7,27.5,30.04,SSE,163,1.0,5.0,42,0.00,SCT,SCT,0.00,207.0,WeatherDisplay:10.37,2013-02-04 20:30:00,
2013-02-04 15:35:00,49.7,27.5,30.03,SSE,160,2.0,6.0,42,0.00,SCT,SCT,0.00,229.0,WeatherDisplay:10.37,2013-02-04 20:35:00,
2013-02-04 15:40:00,49.8,27.6,30.03,South,177,1.0,9.0,42,0.00,SCT,SCT,0.00,213.0,WeatherDisplay:10.37,2013-02-04 20:40:00,
2013-02-04 15:45:00,49.6,26.8,30.03,SSE,162,1.0,12.0,41,0.00,BKN,SCT,0.00,176.0,WeatherDisplay:10.37,2013-02-04 20:45:00,
2013-02-04 15:50:00,49.5,26.7,30.03,SSE,163,5.0,7.0,41,0.00,BKN,SCT,0.00,153.0,WeatherDisplay:10.37,2013-02-04 20:50:00,
2013-02-04 15:55:00,49.4,26.6,30.03,South,179,2.0,6.0,41,0.00,BKN,SCT,0.00,153.0,WeatherDisplay:10.37,2013-02-04 20:55:00,
2013-02-04 16:00:00,49.2,26.5,30.03,South,188,2.0,7.0,41,0.00,BKN,SCT,0.00,146.0,WeatherDisplay:10.37,2013-02-04 21:00:00,
2013-02-04 16:05:00,49.1,27.0,30.03,SSW,202,0.0,3.0,42,0.00,BKN,SCT,0.00,146.0,WeatherDisplay:10.37,2013-02-04 21:05:00,
2013-02-04 16:10:00,49.1,27.0,30.02,SSW,201,2.0,4.0,42,0.00,BKN,SCT,0.00,146.0,WeatherDisplay:10.37,2013-02-04 21:10:00,
2013-02-04 16:15:00,49.0,26.9,30.02,SSW,194,0.0,5.0,42,0.00,BKN,SCT,0.00,144.0,WeatherDisplay:10.37,2013-02-04 21:15:00,
2013-02-04 16:20:00,49.0,26.9,30.02,South,191,2.0,4.0,42,0.00,BKN,SCT,0.00,141.0,WeatherDisplay:10.37,2013-02-04 21:20:00,
2013-02-04 16:25:00,49.0,26.9,30.02,South,191,2.0,5.0,42,0.00,BKN,SCT,0.00,144.0,WeatherDisplay:10.37,2013-02-04 21:25:00,
2013-02-04 16:30:00,49.0,26.9,30.02,SSW,193,1.0,6.0,42,0.00,BKN,SCT,0.00,132.0,WeatherDisplay:10.37,2013-02-04 21:30:00,
2013-02-04 16:35:00,49.1,27.0,30.02,South,186,1.0,5.0,42,0.00,BKN,SCT,0.00,111.0,WeatherDisplay:10.37,2013-02-04 21:35:00,
2013-02-04 16:40:00,49.2,27.0,30.02,South,176,2.0,5.0,42,0.00,BKN,SCT,0.00,98.0,WeatherDisplay:10.37,2013-02-04 21:40:00,
2013-02-04 16:45:00,49.2,26.5,30.02,South,179,5.0,9.0,41,0.00,BKN,SCT,0.00,90.0,WeatherDisplay:10.37,2013-02-04 21:45:00,
2013-02-04 16:50:00,49.2,25.9,30.02,SSW,198,2.0,6.0,40,0.00,BKN,SCT,0.00,77.0,WeatherDisplay:10.37,2013-02-04 21:50:00,
2013-02-04 16:55:00,49.2,25.9,30.02,SSW,202,5.0,9.0,40,0.00,BKN,SCT,0.00,76.0,WeatherDisplay:10.37,2013-02-04 21:55:00,
2013-02-04 17:00:00,49.2,26.5,30.02,SSW,197,1.0,6.0,41,0.00,BKN,SCT,0.00,63.0,WeatherDisplay:10.37,2013-02-04 22:00:00,
2013-02-04 17:05:00,49.1,26.4,30.02,SSW,196,1.0,4.0,41,0.00,,SCT,0.00,54.0,WeatherDisplay:10.37,2013-02-04 22:05:00,
2013-02-04 17:10:00,49.1,26.4,30.02,SSW,192,1.0,7.0,41,0.00,,SCT,0.00,51.0,WeatherDisplay:10.37,2013-02-04 22:10:00,
2013-02-04 17:15:00,49.0,26.3,30.02,South,187,2.0,7.0,41,0.00,,SCT,0.00,39.0,WeatherDisplay:10.37,2013-02-04 22:15:00,
2013-02-04 17:20:00,48.9,26.8,30.02,South,189,2.0,7.0,42,0.00,,SCT,0.00,32.0,WeatherDisplay:10.37,2013-02-04 22:20:00,
2013-02-04 17:25:00,48.8,26.7,30.02,SSW,194,0.0,5.0,42,0.00,,SCT,0.00,26.0,WeatherDisplay:10.37,2013-02-04 22:25:00,
2013-02-04 17:30:00,48.7,26.6,30.01,South,191,3.0,5.0,42,0.00,,SCT,0.00,19.0,WeatherDisplay:10.37,2013-02-04 22:30:00,
2013-02-04 17:35:00,48.5,27.0,30.01,South,191,0.0,3.0,43,0.00,,SCT,0.00,12.0,WeatherDisplay:10.37,2013-02-04 22:35:00,
2013-02-04 17:40:00,48.4,26.9,30.01,South,190,1.0,6.0,43,0.00,,SCT,0.00,9.0,WeatherDisplay:10.37,2013-02-04 22:40:00,
2013-02-04 17:45:00,48.3,26.8,30.02,South,190,0.0,2.0,43,0.00,,SCT,0.00,5.0,WeatherDisplay:10.37,2013-02-04 22:45:00,
2013-02-04 17:50:00,48.1,26.6,30.02,South,190,0.0,2.0,43,0.00,,SCT,0.00,0.0,WeatherDisplay:10.37,2013-02-04 22:50:00,
2013-02-04 17:55:00,48.0,26.5,30.01,South,190,0.0,1.0,43,0.00,,SCT,0.00,0.0,WeatherDisplay:10.37,2013-02-04 22:55:00,
2013-02-04 18:00:00,47.8,26.9,30.02,South,190,0.0,1.0,44,0.00,,SCT,0.00,0.0,WeatherDisplay:10.37,2013-02-04 23:00:00,
2013-02-04 18:05:00,47.6,26.8,30.02,South,190,0.0,3.0,44,0.00,,SCT,0.00,0.0,WeatherDisplay:10.37,2013-02-04 23:05:00,
2013-02-04 18:10:00,47.5,27.2,30.02,South,190,0.0,3.0,45,0.00,,SCT,0.00,0.0,WeatherDisplay:10.37,2013-02-04 23:10:00,
2013-02-04 18:15:00,47.3,27.5,30.02,South,190,0.0,3.0,46,0.00,,SCT,0.00,0.0,WeatherDisplay:10.37,2013-02-04 23:15:00,
2013-02-04 18:20:00,47.1,27.4,30.02,South,190,1.0,5.0,46,0.00,,SCT,0.00,0.0,WeatherDisplay:10.37,2013-02-04 23:20:00,
2013-02-04 18:25:00,46.9,27.7,30.02,South,190,1.0,3.0,47,0.00,,SCT,0.00,0.0,WeatherDisplay:10.37,2013-02-04 23:25:00,
2013-02-04 18:35:00,46.7,27.5,30.01,South,188,2.0,6.0,47,0.00,,SCT,0.00,0.0,WeatherDisplay:10.37,2013-02-04 23:35:00,
2013-02-04 18:40:00,46.6,27.4,30.01,South,188,2.0,6.0,47,0.00,,SCT,0.00,0.0,WeatherDisplay:10.37,2013-02-04 23:40:00,
2013-02-04 18:45:00,46.5,27.3,30.01,South,184,0.0,6.0,47,0.00,,SCT,0.00,0.0,WeatherDisplay:10.37,2013-02-04 23:45:00,
2013-02-04 18:50:00,46.4,27.2,30.02,South,182,1.0,5.0,47,0.00,,SCT,0.00,0.0,WeatherDisplay:10.37,2013-02-04 23:50:00,
2013-02-04 18:55:00,46.3,27.2,30.02,South,182,0.0,5.0,47,0.00,,SCT,0.00,0.0,WeatherDisplay:10.37,2013-02-04 23:55:00,
2013-02-04 19:00:00,46.2,27.1,30.02,South,187,1.0,6.0,47,0.00,,SCT,0.00,0.0,WeatherDisplay:10.37,2013-02-05 00:00:00,
2013-02-04 19:05:00,46.1,27.5,30.02,South,189,2.0,4.0,48,0.00,,SCT,0.00,0.0,WeatherDisplay:10.37,2013-02-05 00:05:00,
2013-02-04 19:10:00,46.0,27.4,30.02,South,187,2.0,6.0,48,0.00,,SCT,0.00,0.0,WeatherDisplay:10.37,2013-02-05 00:10:00,
2013-02-04 19:20:00,45.8,27.2,30.02,South,188,0.0,3.0,48,0.00,,SCT,0.00,0.0,WeatherDisplay:10.37,2013-02-05 00:20:00,
2013-02-04 19:25:00,45.6,27.0,30.02,South,188,0.0,3.0,48,0.00,,SCT,0.00,0.0,WeatherDisplay:10.37,2013-02-05 00:25:00,
2013-02-04 19:30:00,45.5,27.4,30.02,South,188,1.0,4.0,49,0.00,,SCT,0.00,0.0,WeatherDisplay:10.37,2013-02-05 00:30:00,
2013-02-04 19:35:00,45.3,27.3,30.02,South,188,1.0,5.0,49,0.00,,SCT,0.00,0.0,WeatherDisplay:10.37,2013-02-05 00:35:00,
2013-02-04 19:40:00,45.2,27.2,30.02,South,188,1.0,3.0,49,0.00,,SCT,0.00,0.0,WeatherDisplay:10.37,2013-02-05 00:40:00,
2013-02-04 19:45:00,45.1,27.6,30.02,South,188,1.0,5.0,50,0.00,,SCT,0.00,0.0,WeatherDisplay:10.37,2013-02-05 00:45:00,
2013-02-04 19:50:00,45.0,27.5,30.02,South,188,1.0,5.0,50,0.00,,SCT,0.00,0.0,WeatherDisplay:10.37,2013-02-05 00:50:00,
2013-02-04 19:55:00,44.9,27.4,30.02,South,189,1.0,5.0,50,0.00,,SCT,0.00,0.0,WeatherDisplay:10.37,2013-02-05 00:55:00,
2013-02-04 20:05:00,44.6,27.1,30.02,South,190,1.0,4.0,50,0.00,,SCT,0.00,0.0,WeatherDisplay:10.37,2013-02-05 01:05:00,
2013-02-04 20:10:00,44.5,27.5,30.02,South,191,1.0,4.0,51,0.00,,SCT,0.00,0.0,WeatherDisplay:10.37,2013-02-05 01:10:00,
2013-02-04 20:15:00,44.3,27.3,30.02,South,191,1.0,4.0,51,0.00,,SCT,0.00,0.0,WeatherDisplay:10.37,2013-02-05 01:15:00,
2013-02-04 20:20:00,44.2,27.2,30.02,SSW,192,0.0,3.0,51,0.00,,SCT,0.00,0.0,WeatherDisplay:10.37,2013-02-05 01:20:00,
2013-02-04 20:25:00,44.0,27.5,30.02,SSW,192,1.0,2.0,52,0.00,,SCT,0.00,0.0,WeatherDisplay:10.37,2013-02-05 01:25:00,
2013-02-04 20:35:00,43.7,27.2,30.02,SSW,192,2.0,5.0,52,0.00,,SCT,0.00,0.0,WeatherDisplay:10.37,2013-02-05 01:35:00,
2013-02-04 20:40:00,43.6,27.6,30.02,SSW,192,0.0,2.0,53,0.00,,SCT,0.00,0.0,WeatherDisplay:10.37,2013-02-05 01:40:00,
2013-02-04 20:45:00,43.4,27.4,30.02,SSW,192,0.0,3.0,53,0.00,,SCT,0.00,0.0,WeatherDisplay:10.37,2013-02-05 01:45:00,
2013-02-04 20:50:00,43.2,27.2,30.02,SSW,192,0.0,4.0,53,0.00,,SCT,0.00,0.0,WeatherDisplay:10.37,2013-02-05 01:50:00,
2013-02-04 20:55:00,43.1,27.1,30.02,SSW,192,0.0,2.0,53,0.00,,SCT,0.00,0.0,WeatherDisplay:10.37,2013-02-05 01:55:00,
2013-02-04 21:05:00,42.8,27.3,30.03,SSW,192,0.0,1.0,54,0.00,,SCT,0.00,0.0,WeatherDisplay:10.37,2013-02-05 02:05:00,
2013-02-04 21:10:00,42.6,27.1,30.03,SSW,192,0.0,2.0,54,0.00,,SCT,0.00,0.0,WeatherDisplay:10.37,2013-02-05 02:10:00,
2013-02-04 21:15:00,42.4,26.9,30.02,SSW,192,0.0,0.0,54,0.00,,SCT,0.00,0.0,WeatherDisplay:10.37,2013-02-05 02:15:00,
2013-02-04 21:20:00,42.2,27.1,30.03,SSW,192,0.0,1.0,55,0.00,,SCT,0.00,0.0,WeatherDisplay:10.37,2013-02-05 02:20:00,
2013-02-04 21:25:00,41.9,26.9,30.03,South,191,0.0,1.0,55,0.00,,SCT,0.00,0.0,WeatherDisplay:10.37,2013-02-05 02:25:00,
2013-02-04 21:30:00,41.6,26.6,30.03,SSW,192,1.0,2.0,55,0.00,,SCT,0.00,0.0,WeatherDisplay:10.37,2013-02-05 02:30:00,
2013-02-04 21:35:00,41.3,26.8,30.03,SSW,192,0.0,2.0,56,0.00,,SCT,0.00,0.0,WeatherDisplay:10.37,2013-02-05 02:35:00,
2013-02-04 21:40:00,41.1,26.6,30.03,SSW,192,0.0,1.0,56,0.00,,SCT,0.00,0.0,WeatherDisplay:10.37,2013-02-05 02:40:00,
2013-02-04 21:45:00,40.8,26.3,30.03,SSW,192,0.0,3.0,56,0.00,,SCT,0.00,0.0,WeatherDisplay:10.37,2013-02-05 02:45:00,
2013-02-04 21:50:00,40.7,26.6,30.03,SSW,192,0.0,2.0,57,0.00,,SCT,0.00,0.0,WeatherDisplay:10.37,2013-02-05 02:50:00,
2013-02-04 21:55:00,40.5,26.4,30.03,SSW,192,0.0,3.0,57,0.00,,SCT,0.00,0.0,WeatherDisplay:10.37,2013-02-05 02:55:00,
2013-02-04 22:00:00,40.4,26.3,30.03,SSW,192,0.0,5.0,57,0.00,,SCT,0.00,0.0,WeatherDisplay:10.37,2013-02-05 03:00:00,
2013-02-04 22:05:00,40.3,26.2,30.03,SSW,192,0.0,2.0,57,0.00,,SCT,0.00,0.0,WeatherDisplay:10.37,2013-02-05 03:05:00,
2013-02-04 22:15:00,40.2,26.6,30.03,SSW,192,1.0,2.0,58,0.00,,SCT,0.00,0.0,WeatherDisplay:10.37,2013-02-05 03:15:00,
2013-02-04 22:20:00,40.1,26.5,30.03,SSW,192,1.0,3.0,58,0.00,,SCT,0.00,0.0,WeatherDisplay:10.37,2013-02-05 03:20:00,
2013-02-04 22:25:00,40.1,26.5,30.03,SSW,192,0.0,3.0,58,0.00,,SCT,0.00,0.0,WeatherDisplay:10.37,2013-02-05 03:25:00,
2013-02-04 22:30:00,40.1,26.5,30.03,SSW,192,0.0,2.0,58,0.00,,SCT,0.00,0.0,WeatherDisplay:10.37,2013-02-05 03:30:00,
2013-02-04 22:35:00,40.1,26.5,30.02,South,191,0.0,2.0,58,0.00,,SCT,0.00,0.0,WeatherDisplay:10.37,2013-02-05 03:35:00,
2013-02-04 22:40:00,40.0,26.4,30.02,South,191,1.0,5.0,58,0.00,,SCT,0.00,0.0,WeatherDisplay:10.37,2013-02-05 03:40:00,
2013-02-04 22:45:00,40.0,26.4,30.02,South,191,1.0,4.0,58,0.00,,SCT,0.00,0.0,WeatherDisplay:10.37,2013-02-05 03:45:00,
2013-02-04 22:50:00,40.0,26.4,30.02,South,190,0.0,3.0,58,0.00,,SCT,0.00,0.0,WeatherDisplay:10.37,2013-02-05 03:50:00,
2013-02-04 22:55:00,40.0,26.4,30.02,South,190,0.0,4.0,58,0.00,,SCT,0.00,0.0,WeatherDisplay:10.37,2013-02-05 03:55:00,
2013-02-04 23:05:00,40.0,26.4,30.02,South,190,0.0,3.0,58,0.00,,SCT,0.00,0.0,WeatherDisplay:10.37,2013-02-05 04:05:00,
2013-02-04 23:15:00,40.1,26.5,30.02,South,189,0.0,3.0,58,0.00,,SCT,0.00,0.0,WeatherDisplay:10.37,2013-02-05 04:15:00,
2013-02-04 23:20:00,40.1,26.5,30.02,South,189,1.0,6.0,58,0.00,,SCT,0.00,0.0,WeatherDisplay:10.37,2013-02-05 04:20:00,
2013-02-04 23:25:00,40.1,26.5,30.01,SSW,193,2.0,7.0,58,0.00,,SCT,0.00,0.0,WeatherDisplay:10.37,2013-02-05 04:25:00,
2013-02-04 23:30:00,40.2,26.6,30.01,SSW,194,1.0,4.0,58,0.00,,SCT,0.00,0.0,WeatherDisplay:10.37,2013-02-05 04:30:00,
2013-02-04 23:35:00,40.2,26.6,30.01,SSW,195,0.0,2.0,58,0.00,,SCT,0.00,0.0,WeatherDisplay:10.37,2013-02-05 04:35:00,
2013-02-04 23:40:00,40.2,26.6,30.01,SSW,195,0.0,1.0,58,0.00,,SCT,0.00,0.0,WeatherDisplay:10.37,2013-02-05 04:40:00,
2013-02-04 23:50:00,40.1,26.5,30.00,SSW,195,0.0,1.0,58,0.00,,SCT,0.00,0.0,WeatherDisplay:10.37,2013-02-05 04:50:00,
2013-02-04 23:55:00,40.0,26.4,30.00,SSW,195,0.0,2.0,58,0.00,,SCT,0.00,0.0,WeatherDisplay:10.37,2013-02-05 04:55:00,